Time;durP1;ratioP1;P1;durP2;ratioP2;P2;SDS_P1;SDS_P2;PMS_P1;PMS_P2;Temp;Humidity;BMP_temperature;BMP_pressure;BME280_temperature;BME280_humidity;BME280_pressure;Samples;Min_cycle;Max_cycle;Signal;HPM_P1;HPM_P2
2023/12/16 00:01:58;;;;;;;78.60;27.77;;;3.00;99.90;;;;;;5033191;28;20289;-83
2023/12/16 00:04:55;;;;;;;68.20;25.80;;;3.00;99.90;;;;;;5033011;28;20680;-83
2023/12/16 00:07:42;;;;;;;69.03;25.33;;;2.90;99.90;;;;;;5032778;28;20548;-83
2023/12/16 00:10:30;;;;;;;69.60;25.17;;;3.00;99.90;;;;;;5032943;28;20701;-83
2023/12/16 00:13:17;;;;;;;66.57;24.40;;;3.00;99.90;;;;;;5032437;28;20194;-83
2023/12/16 00:16:05;;;;;;;65.30;23.90;;;3.00;99.90;;;;;;5032828;28;20681;-84
2023/12/16 00:18:53;;;;;;;62.40;23.83;;;3.00;99.90;;;;;;5032926;28;20199;-83
2023/12/16 00:21:41;;;;;;;60.00;23.73;;;3.00;99.90;;;;;;5030662;28;20709;-83
2023/12/16 00:24:28;;;;;;;64.13;23.07;;;3.10;99.90;;;;;;5032495;28;20205;-83
2023/12/16 00:27:16;;;;;;;62.00;24.43;;;3.00;99.90;;;;;;5032415;28;20350;-84
2023/12/16 00:30:08;;;;;;;61.60;22.83;;;3.10;99.90;;;;;;5032229;28;20226;-83
2023/12/16 00:32:55;;;;;;;58.47;23.50;;;3.10;99.90;;;;;;5032475;28;20201;-83
2023/12/16 00:35:42;;;;;;;63.50;23.73;;;3.00;99.90;;;;;;5032996;28;20255;-83
2023/12/16 00:38:30;;;;;;;64.00;24.33;;;3.10;99.90;;;;;;5032522;28;20677;-83
2023/12/16 00:41:17;;;;;;;60.70;22.87;;;3.20;99.90;;;;;;5032582;28;20223;-83
2023/12/16 00:44:05;;;;;;;66.40;23.63;;;3.10;99.90;;;;;;5031308;28;20604;-83
2023/12/16 00:46:52;;;;;;;60.23;23.67;;;3.10;99.90;;;;;;5031947;28;20198;-83
2023/12/16 00:49:39;;;;;;;62.53;23.40;;;3.10;99.90;;;;;;5032056;28;20787;-82
2023/12/16 00:52:27;;;;;;;63.53;22.70;;;3.10;99.90;;;;;;5031887;28;20189;-83
2023/12/16 00:55:14;;;;;;;63.90;23.77;;;3.10;99.90;;;;;;5032729;28;20203;-83
2023/12/16 00:58:02;;;;;;;62.63;23.80;;;3.10;99.90;;;;;;5033292;28;20195;-83
2023/12/16 01:00:49;;;;;;;65.00;23.83;;;3.10;99.90;;;;;;5031563;28;20620;-83
2023/12/16 01:03:40;;;;;;;67.27;24.17;;;3.10;99.90;;;;;;5031346;28;20685;-83
2023/12/16 01:06:28;;;;;;;75.73;25.30;;;3.10;99.90;;;;;;5030459;28;20212;-83
2023/12/16 01:09:15;;;;;;;69.07;24.77;;;3.20;99.90;;;;;;5031022;28;20271;-83
2023/12/16 01:12:03;;;;;;;72.27;25.37;;;3.10;99.90;;;;;;5033267;28;20316;-83
2023/12/16 01:14:50;;;;;;;74.90;24.90;;;3.10;99.90;;;;;;5032807;28;20203;-82
2023/12/16 01:17:38;;;;;;;70.80;24.90;;;3.10;99.90;;;;;;5031952;28;20199;-85
2023/12/16 01:20:26;;;;;;;79.77;26.13;;;3.10;99.90;;;;;;5031967;28;20289;-82
2023/12/16 01:23:13;;;;;;;77.27;25.13;;;3.10;99.90;;;;;;5032705;28;20197;-83
2023/12/16 01:26:00;;;;;;;79.50;24.93;;;3.10;99.90;;;;;;5036816;28;20358;-83
2023/12/16 01:28:47;;;;;;;74.07;25.43;;;3.10;99.90;;;;;;5036152;28;20200;-83
2023/12/16 01:31:35;;;;;;;73.03;25.67;;;3.10;99.90;;;;;;5035806;28;20217;-83
2023/12/16 01:34:23;;;;;;;71.57;23.50;;;3.10;99.90;;;;;;5036227;28;20232;-83
2023/12/16 01:37:10;;;;;;;72.17;24.17;;;3.10;99.90;;;;;;5035670;28;20199;-83
2023/12/16 01:40:00;;;;;;;79.70;25.73;;;3.10;99.90;;;;;;5035141;28;20197;-83
2023/12/16 01:42:48;;;;;;;73.13;25.20;;;3.10;99.90;;;;;;5034265;28;20199;-82
2023/12/16 01:45:36;;;;;;;72.47;24.83;;;3.10;99.90;;;;;;5035443;28;20716;-84
2023/12/16 01:48:23;;;;;;;80.87;25.93;;;3.10;99.90;;;;;;5034461;28;20280;-82
2023/12/16 01:51:12;;;;;;;73.50;25.67;;;3.20;99.90;;;;;;5036690;28;20309;-82
2023/12/16 01:54:00;;;;;;;82.03;25.23;;;3.10;99.90;;;;;;5035464;28;20251;-80
2023/12/16 01:56:56;;;;;;;82.43;25.67;;;3.10;99.90;;;;;;5034031;28;20270;-83
2023/12/16 01:59:44;;;;;;;76.67;25.57;;;3.10;99.90;;;;;;5036243;28;20674;-82
2023/12/16 02:02:31;;;;;;;73.30;25.23;;;3.20;99.90;;;;;;5035004;28;20311;-83
2023/12/16 02:05:19;;;;;;;84.03;26.90;;;3.20;99.90;;;;;;5034272;28;20228;-83
2023/12/16 02:08:07;;;;;;;84.43;26.47;;;3.20;99.90;;;;;;5034949;28;20206;-82
2023/12/16 02:10:54;;;;;;;77.30;25.63;;;3.10;99.90;;;;;;5035298;28;20314;-82
2023/12/16 02:13:42;;;;;;;82.70;24.77;;;3.10;99.90;;;;;;5035105;28;20284;-82
2023/12/16 02:16:29;;;;;;;78.67;25.20;;;3.10;99.90;;;;;;5035502;28;20262;-83
2023/12/16 02:19:24;;;;;;;74.20;24.73;;;3.20;99.90;;;;;;5034684;28;20272;-83
2023/12/16 02:22:12;;;;;;;78.53;24.93;;;3.10;99.90;;;;;;5034895;28;20681;-83
2023/12/16 02:25:00;;;;;;;83.83;25.83;;;3.20;99.90;;;;;;5035306;28;20201;-83
2023/12/16 02:27:48;;;;;;;76.70;24.47;;;3.20;99.90;;;;;;5034322;28;20194;-83
2023/12/16 02:30:35;;;;;;;79.37;24.77;;;3.20;99.90;;;;;;5034590;28;20302;-83
2023/12/16 02:33:23;;;;;;;81.27;26.00;;;3.20;99.90;;;;;;5035028;28;20206;-83
2023/12/16 02:36:11;;;;;;;85.17;25.57;;;3.20;99.90;;;;;;5033115;28;20347;-83
2023/12/16 02:38:58;;;;;;;78.20;24.33;;;3.20;99.90;;;;;;5034603;28;20195;-83
2023/12/16 02:41:45;;;;;;;75.97;24.03;;;3.20;99.90;;;;;;5034591;28;20356;-83
2023/12/16 02:44:33;;;;;;;77.53;24.50;;;3.30;99.90;;;;;;5034600;28;20190;-83
2023/12/16 02:47:20;;;;;;;73.73;23.67;;;3.30;99.90;;;;;;5034338;28;20239;-83
2023/12/16 02:50:08;;;;;;;70.50;24.40;;;3.40;99.90;;;;;;5020549;28;20701;-83
2023/12/16 02:52:55;;;;;;;70.27;24.27;;;3.30;99.90;;;;;;5034726;28;20353;-83
2023/12/16 02:55:42;;;;;;;72.77;23.77;;;3.30;99.90;;;;;;5034734;28;20249;-83
2023/12/16 02:58:30;;;;;;;71.50;24.10;;;3.40;99.90;;;;;;5033579;28;20248;-83
2023/12/16 03:01:18;;;;;;;75.00;24.13;;;3.30;99.90;;;;;;5036120;28;20205;-83
2023/12/16 03:04:05;;;;;;;72.60;22.97;;;3.30;99.90;;;;;;5034193;28;20215;-83
2023/12/16 03:06:53;;;;;;;79.80;22.50;;;3.30;99.90;;;;;;5033108;28;20278;-83
2023/12/16 03:09:40;;;;;;;74.10;23.13;;;3.30;99.90;;;;;;5035789;28;20210;-83
2023/12/16 03:12:28;;;;;;;68.57;22.73;;;3.30;99.90;;;;;;5033665;28;20240;-83
2023/12/16 03:15:15;;;;;;;79.03;23.33;;;3.30;99.90;;;;;;5034013;28;20194;-83
2023/12/16 03:18:03;;;;;;;73.57;22.20;;;3.30;99.90;;;;;;5034073;28;20193;-83
2023/12/16 03:20:51;;;;;;;85.43;23.43;;;3.30;99.90;;;;;;5034256;28;20198;-83
2023/12/16 03:23:39;;;;;;;72.73;22.60;;;3.30;99.90;;;;;;5035025;28;20270;-83
2023/12/16 03:26:26;;;;;;;78.47;23.27;;;3.30;99.90;;;;;;5034349;28;20218;-83
2023/12/16 03:29:14;;;;;;;81.83;23.20;;;3.30;99.90;;;;;;5033955;28;20209;-83
2023/12/16 03:32:01;;;;;;;70.47;22.20;;;3.40;99.90;;;;;;5033394;28;20261;-83
2023/12/16 03:34:48;;;;;;;67.57;22.17;;;3.40;99.90;;;;;;5033583;28;20198;-83
2023/12/16 03:37:36;;;;;;;70.07;21.83;;;3.40;99.90;;;;;;5033778;28;20191;-83
2023/12/16 03:40:24;;;;;;;76.63;22.77;;;3.30;99.90;;;;;;5033784;28;20672;-83
2023/12/16 03:43:12;;;;;;;75.20;21.50;;;3.40;99.90;;;;;;5033196;28;20346;-83
2023/12/16 03:46:00;;;;;;;71.40;21.13;;;3.40;99.90;;;;;;5032051;28;20258;-83
2023/12/16 03:48:47;;;;;;;73.33;21.87;;;3.40;99.90;;;;;;5032906;28;20199;-83
2023/12/16 03:51:35;;;;;;;72.13;21.33;;;3.40;99.90;;;;;;5033954;28;20215;-83
2023/12/16 03:54:22;;;;;;;73.47;21.37;;;3.40;99.90;;;;;;5032940;28;20278;-83
2023/12/16 03:57:10;;;;;;;68.30;20.10;;;3.40;99.90;;;;;;5032951;28;20221;-83
2023/12/16 03:59:58;;;;;;;64.70;19.30;;;3.40;99.90;;;;;;5032362;28;20660;-83
2023/12/16 04:02:45;;;;;;;69.63;21.67;;;3.50;99.90;;;;;;5033288;28;20273;-83
2023/12/16 04:05:33;;;;;;;69.40;19.83;;;3.50;99.90;;;;;;5032925;28;20230;-83
2023/12/16 04:08:20;;;;;;;72.27;20.70;;;3.50;99.90;;;;;;5033484;28;20210;-83
2023/12/16 04:11:08;;;;;;;71.53;20.10;;;3.50;99.90;;;;;;5033792;28;20310;-83
2023/12/16 04:13:55;;;;;;;63.93;19.30;;;3.40;99.90;;;;;;5032851;28;20191;-83
2023/12/16 04:16:43;;;;;;;69.43;19.47;;;3.50;99.90;;;;;;5032575;28;20188;-81
2023/12/16 04:19:30;;;;;;;69.40;20.60;;;3.50;99.90;;;;;;5033184;28;20281;-83
2023/12/16 04:22:18;;;;;;;79.57;20.50;;;3.50;99.90;;;;;;5032804;28;20200;-83
2023/12/16 04:25:10;;;;;;;72.37;19.50;;;3.60;99.90;;;;;;5033631;28;20282;-83
2023/12/16 04:27:58;;;;;;;68.23;21.20;;;3.50;99.90;;;;;;5033760;28;20201;-84
2023/12/16 04:30:45;;;;;;;64.57;20.20;;;3.50;99.90;;;;;;5032792;28;20214;-83
2023/12/16 04:33:33;;;;;;;74.00;21.37;;;3.60;99.90;;;;;;5032262;28;20340;-84
2023/12/16 04:36:21;;;;;;;78.40;21.17;;;3.60;99.90;;;;;;5032997;28;20222;-84
2023/12/16 04:39:08;;;;;;;67.67;20.23;;;3.60;99.90;;;;;;5031845;28;20192;-84
2023/12/16 04:41:56;;;;;;;80.93;20.57;;;3.60;99.90;;;;;;5032839;28;20675;-85
2023/12/16 04:44:43;;;;;;;74.83;20.33;;;3.60;99.90;;;;;;5031622;28;20273;-84
2023/12/16 04:47:31;;;;;;;77.73;20.63;;;3.60;99.90;;;;;;5032743;28;20280;-83
2023/12/16 04:50:18;;;;;;;71.37;19.90;;;3.60;99.90;;;;;;5032675;28;20678;-83
2023/12/16 04:53:07;;;;;;;71.67;19.87;;;3.70;99.90;;;;;;5032112;28;20196;-83
2023/12/16 04:55:54;;;;;;;83.03;21.03;;;3.60;99.90;;;;;;5018022;28;20293;-83
2023/12/16 04:58:41;;;;;;;65.77;20.93;;;3.70;99.90;;;;;;5033441;28;20277;-82
2023/12/16 05:01:29;;;;;;;70.77;19.13;;;3.60;99.90;;;;;;5034943;28;20283;-82
2023/12/16 05:04:16;;;;;;;69.73;20.50;;;3.70;99.90;;;;;;5034489;28;20244;-82
2023/12/16 05:07:04;;;;;;;71.77;20.03;;;3.70;99.90;;;;;;5035210;28;20209;-83
2023/12/16 05:09:51;;;;;;;68.63;19.93;;;3.70;99.90;;;;;;5036147;28;20229;-83
2023/12/16 05:12:40;;;;;;;69.53;20.80;;;3.80;99.90;;;;;;5036995;28;20218;-84
2023/12/16 05:15:28;;;;;;;75.80;21.27;;;3.80;99.90;;;;;;5036081;28;20567;-85
2023/12/16 05:18:15;;;;;;;78.30;21.20;;;3.80;99.90;;;;;;5036250;28;20259;-83
2023/12/16 05:21:03;;;;;;;69.23;20.37;;;3.70;99.90;;;;;;5036440;28;20606;-83
2023/12/16 05:23:50;;;;;;;76.57;20.27;;;3.80;99.90;;;;;;5035409;28;20206;-82
2023/12/16 05:26:38;;;;;;;69.07;20.40;;;3.80;99.90;;;;;;5036422;28;20217;-83
2023/12/16 05:29:25;;;;;;;74.90;20.97;;;3.80;99.90;;;;;;5036480;28;20549;-83
2023/12/16 05:32:12;;;;;;;79.27;21.37;;;3.80;99.90;;;;;;5035944;28;20226;-83
2023/12/16 05:35:00;;;;;;;80.57;21.37;;;3.80;99.90;;;;;;5036736;28;20624;-83
2023/12/16 05:37:48;;;;;;;69.17;20.73;;;3.80;99.90;;;;;;5036387;28;20245;-84
2023/12/16 05:40:35;;;;;;;74.87;21.70;;;3.80;99.90;;;;;;5036853;28;20199;-84
2023/12/16 05:43:23;;;;;;;76.37;22.20;;;3.90;99.90;;;;;;5042570;28;20290;-84
2023/12/16 05:46:10;;;;;;;74.07;22.37;;;3.80;99.90;;;;;;5051850;28;20259;-85
2023/12/16 05:48:58;;;;;;;75.30;21.73;;;3.90;99.90;;;;;;5056346;28;20665;-85
2023/12/16 05:51:45;;;;;;;71.73;20.73;;;3.90;99.90;;;;;;5056817;28;20221;-83
2023/12/16 05:54:33;;;;;;;75.33;21.50;;;3.90;99.90;;;;;;5048650;28;20585;-83
2023/12/16 05:57:20;;;;;;;72.57;20.87;;;3.90;99.90;;;;;;5038788;28;20225;-84
2023/12/16 06:00:08;;;;;;;63.20;19.63;;;3.90;99.90;;;;;;5039227;28;20189;-83
2023/12/16 06:02:56;;;;;;;68.03;19.37;;;4.00;99.90;;;;;;5035195;28;20202;-83
2023/12/16 06:05:43;;;;;;;68.40;21.03;;;4.00;99.90;;;;;;5034393;28;20601;-84
2023/12/16 06:08:30;;;;;;;64.30;20.70;;;4.00;99.90;;;;;;5034911;28;20202;-84
2023/12/16 06:11:18;;;;;;;69.80;20.20;;;4.00;99.90;;;;;;5035145;28;20758;-84
2023/12/16 06:14:05;;;;;;;66.13;19.73;;;4.00;99.90;;;;;;5035032;28;20472;-84
2023/12/16 06:16:52;;;;;;;67.03;19.67;;;3.90;99.90;;;;;;5036682;28;20298;-84
2023/12/16 06:19:40;;;;;;;65.10;19.93;;;4.00;99.90;;;;;;5034251;28;20201;-85
2023/12/16 06:22:28;;;;;;;62.77;18.97;;;4.00;99.90;;;;;;5036288;28;20197;-85
2023/12/16 06:25:15;;;;;;;72.37;19.83;;;4.00;99.90;;;;;;5036922;28;20245;-85
2023/12/16 06:28:03;;;;;;;71.53;19.97;;;4.00;99.90;;;;;;5034806;28;20650;-84
2023/12/16 06:30:50;;;;;;;63.50;19.80;;;4.00;99.90;;;;;;5035409;28;20676;-84
2023/12/16 06:33:37;;;;;;;71.77;21.07;;;4.10;99.90;;;;;;5036489;28;20279;-84
2023/12/16 06:36:25;;;;;;;64.73;20.20;;;4.10;99.90;;;;;;5035577;28;20330;-84
2023/12/16 06:39:12;;;;;;;66.00;19.63;;;4.00;99.90;;;;;;5034689;28;20270;-85
2023/12/16 06:41:59;;;;;;;65.03;20.07;;;4.10;99.90;;;;;;5033805;28;20594;-85
2023/12/16 06:44:47;;;;;;;68.83;19.80;;;4.10;99.90;;;;;;5035000;28;20192;-82
2023/12/16 06:47:35;;;;;;;64.23;19.27;;;4.10;99.90;;;;;;5034697;28;20192;-85
2023/12/16 06:50:23;;;;;;;66.87;20.27;;;4.10;99.90;;;;;;5035547;28;20333;-85
2023/12/16 06:53:11;;;;;;;75.07;21.40;;;4.10;99.90;;;;;;5035588;28;20195;-86
2023/12/16 06:55:59;;;;;;;63.67;18.77;;;4.10;99.90;;;;;;5033234;28;20215;-84
2023/12/16 06:58:47;;;;;;;64.93;19.40;;;4.20;99.90;;;;;;5034811;28;20257;-86
2023/12/16 07:01:35;;;;;;;68.90;20.17;;;4.20;99.90;;;;;;5034097;28;20198;-85
2023/12/16 07:04:24;;;;;;;58.43;20.17;;;4.20;99.90;;;;;;5035088;28;20297;-84
2023/12/16 07:07:11;;;;;;;61.67;18.60;;;4.20;99.90;;;;;;5036302;28;20227;-85
2023/12/16 07:09:59;;;;;;;54.93;18.27;;;4.20;99.90;;;;;;5034100;28;20195;-85
2023/12/16 07:12:46;;;;;;;66.40;18.80;;;4.20;99.90;;;;;;5033368;28;20226;-85
2023/12/16 07:15:34;;;;;;;59.90;19.13;;;4.30;99.90;;;;;;5034091;28;20188;-85
2023/12/16 07:18:21;;;;;;;53.83;18.83;;;4.30;99.90;;;;;;5035051;28;20199;-85
2023/12/16 07:21:09;;;;;;;56.30;18.57;;;4.30;99.90;;;;;;5033464;28;20192;-84
2023/12/16 07:23:56;;;;;;;55.70;17.63;;;4.30;99.90;;;;;;5035232;28;20673;-84
2023/12/16 07:26:44;;;;;;;50.90;17.53;;;4.30;99.90;;;;;;5033195;28;20294;-85
2023/12/16 07:29:34;;;;;;;56.30;18.13;;;4.40;99.90;;;;;;5034235;28;20687;-85
2023/12/16 07:32:22;;;;;;;55.50;17.97;;;4.40;99.90;;;;;;5032601;28;20258;-85
2023/12/16 07:35:13;;;;;;;50.67;16.70;;;4.40;99.90;;;;;;5033116;28;20199;-84
2023/12/16 07:38:00;;;;;;;52.20;18.20;;;4.40;99.90;;;;;;5033777;28;20210;-84
2023/12/16 07:40:48;;;;;;;53.47;16.70;;;4.40;99.90;;;;;;5033106;28;20302;-85
2023/12/16 07:43:35;;;;;;;54.10;18.13;;;4.40;99.90;;;;;;5034327;28;20204;-84
2023/12/16 07:46:24;;;;;;;56.47;18.63;;;4.40;99.90;;;;;;5033387;28;20195;-85
2023/12/16 07:49:12;;;;;;;53.87;18.90;;;4.50;99.90;;;;;;5034058;28;20202;-86
2023/12/16 07:52:00;;;;;;;55.27;18.23;;;4.50;99.90;;;;;;5033112;28;20358;-86
2023/12/16 07:54:48;;;;;;;59.70;19.73;;;4.50;99.90;;;;;;5033180;28;20199;-86
2023/12/16 07:57:35;;;;;;;54.93;18.60;;;4.50;99.90;;;;;;5034779;28;20657;-86
2023/12/16 08:00:23;;;;;;;55.70;19.33;;;4.50;99.90;;;;;;5033334;28;20199;-86
2023/12/16 08:03:10;;;;;;;50.00;18.77;;;4.50;99.90;;;;;;5033982;28;20277;-87
2023/12/16 08:05:58;;;;;;;54.80;18.83;;;4.50;99.90;;;;;;5033776;28;20674;-85
2023/12/16 08:08:45;;;;;;;54.97;19.00;;;4.60;99.90;;;;;;5032537;28;20197;-85
2023/12/16 08:11:33;;;;;;;53.20;18.73;;;4.60;99.90;;;;;;5047377;28;20281;-85
2023/12/16 08:14:22;;;;;;;60.20;19.60;;;4.70;99.90;;;;;;5032389;28;20654;-84
2023/12/16 08:17:09;;;;;;;57.23;20.07;;;4.70;99.90;;;;;;5032986;28;20199;-87
2023/12/16 08:19:57;;;;;;;63.27;20.50;;;4.80;99.90;;;;;;5033346;28;20673;-82
2023/12/16 08:22:45;;;;;;;54.33;19.40;;;4.70;99.90;;;;;;5032822;28;20196;-83
2023/12/16 08:25:35;;;;;;;54.90;20.10;;;4.80;99.90;;;;;;5031211;28;20324;-80
2023/12/16 08:28:23;;;;;;;50.87;18.27;;;4.80;99.90;;;;;;5032872;28;20202;-79
2023/12/16 08:31:11;;;;;;;46.37;18.87;;;4.80;99.90;;;;;;5033470;28;20201;-77
2023/12/16 08:33:59;;;;;;;49.63;18.60;;;4.90;99.90;;;;;;5032775;28;20199;-78
2023/12/16 08:36:48;;;;;;;47.07;16.80;;;4.80;99.90;;;;;;5032149;28;20249;-81
2023/12/16 08:39:36;;;;;;;44.83;17.57;;;4.80;99.90;;;;;;5030848;28;20252;-77
2023/12/16 08:42:23;;;;;;;48.80;18.47;;;4.90;99.90;;;;;;5031724;28;20269;-78
2023/12/16 08:45:12;;;;;;;44.00;17.37;;;4.90;99.90;;;;;;5032531;28;20209;-78
2023/12/16 08:47:59;;;;;;;43.33;16.57;;;5.00;99.90;;;;;;5032666;28;20199;-79
2023/12/16 08:50:47;;;;;;;44.73;16.53;;;5.00;99.90;;;;;;5032842;28;20264;-78
2023/12/16 08:53:34;;;;;;;36.33;15.37;;;5.10;99.90;;;;;;5032498;28;20664;-78
2023/12/16 08:56:22;;;;;;;42.60;15.53;;;5.10;99.90;;;;;;5031612;28;20586;-78
2023/12/16 08:59:09;;;;;;;40.13;15.53;;;5.10;99.90;;;;;;5032170;28;20199;-77
2023/12/16 09:01:57;;;;;;;42.17;16.07;;;5.20;99.90;;;;;;5031448;28;20333;-77
2023/12/16 09:04:45;;;;;;;49.70;15.53;;;5.10;99.90;;;;;;5031460;28;20593;-78
2023/12/16 09:07:33;;;;;;;46.07;16.10;;;5.10;99.90;;;;;;5029806;28;20193;-76
2023/12/16 09:10:21;;;;;;;46.43;17.33;;;5.10;99.90;;;;;;5031963;28;20202;-77
2023/12/16 09:13:08;;;;;;;47.77;16.80;;;5.20;99.90;;;;;;5032222;28;20217;-77
2023/12/16 09:15:56;;;;;;;48.53;16.93;;;5.20;99.90;;;;;;5030402;28;20278;-78
2023/12/16 09:18:44;;;;;;;48.43;17.93;;;5.20;99.90;;;;;;5030857;28;20190;-78
2023/12/16 09:21:31;;;;;;;42.50;16.60;;;5.30;99.90;;;;;;5031875;28;20275;-77
2023/12/16 09:24:19;;;;;;;44.70;16.30;;;5.40;99.90;;;;;;5031294;28;20285;-76
2023/12/16 09:27:07;;;;;;;38.07;15.27;;;5.30;99.90;;;;;;5031403;28;20218;-77
2023/12/16 09:29:54;;;;;;;39.40;14.87;;;5.40;99.90;;;;;;5030895;28;20248;-77
2023/12/16 09:32:45;;;;;;;36.67;13.83;;;5.50;99.90;;;;;;5031284;28;20220;-77
2023/12/16 09:35:33;;;;;;;36.20;13.83;;;5.50;99.90;;;;;;5030921;28;20195;-77
2023/12/16 09:38:20;;;;;;;34.07;12.23;;;5.60;99.90;;;;;;5030794;28;20687;-76
2023/12/16 09:41:22;;;;;;;30.93;12.20;;;5.60;99.90;;;;;;5030772;28;20365;-76
2023/12/16 09:44:13;;;;;;;34.47;12.10;;;5.60;99.90;;;;;;5033137;28;20203;-81
2023/12/16 09:47:01;;;;;;;28.87;10.77;;;5.60;99.90;;;;;;5035878;28;20608;-84
2023/12/16 09:49:51;;;;;;;26.20;10.37;;;5.60;99.90;;;;;;5036375;28;20191;-83
2023/12/16 09:52:41;;;;;;;27.53;10.60;;;5.60;99.90;;;;;;5034741;28;20241;-82
2023/12/16 09:55:29;;;;;;;26.67;9.80;;;5.70;99.90;;;;;;5035418;28;20195;-83
2023/12/16 09:58:17;;;;;;;27.77;10.07;;;5.70;99.90;;;;;;5035040;28;20199;-82
2023/12/16 10:01:07;;;;;;;27.63;9.93;;;5.70;99.90;;;;;;5035530;28;20199;-84
2023/12/16 10:03:56;;;;;;;29.73;10.00;;;5.70;99.90;;;;;;5036146;28;20202;-84
2023/12/16 10:06:43;;;;;;;28.33;9.83;;;5.70;99.90;;;;;;5022234;28;20192;-85
2023/12/16 10:09:31;;;;;;;26.03;9.20;;;5.80;99.90;;;;;;5035587;28;20191;-86
2023/12/16 10:12:19;;;;;;;27.10;9.83;;;5.70;99.90;;;;;;5035349;28;20302;-84
2023/12/16 10:15:07;;;;;;;26.10;9.40;;;5.80;99.90;;;;;;5035334;28;20204;-84
2023/12/16 10:17:54;;;;;;;25.57;9.30;;;5.80;99.90;;;;;;5035513;28;20713;-83
2023/12/16 10:20:43;;;;;;;30.20;9.60;;;5.80;99.90;;;;;;5034845;28;20648;-84
2023/12/16 10:23:30;;;;;;;24.63;9.07;;;5.80;99.90;;;;;;5035494;28;20200;-85
2023/12/16 10:26:18;;;;;;;21.87;8.90;;;5.90;99.90;;;;;;5034900;28;20636;-84
2023/12/16 10:29:05;;;;;;;22.67;9.67;;;5.90;99.90;;;;;;5036175;28;20196;-83
2023/12/16 10:31:53;;;;;;;23.03;9.00;;;5.90;99.90;;;;;;5035652;28;20219;-85
2023/12/16 10:34:40;;;;;;;24.90;9.77;;;6.00;99.90;;;;;;5034747;28;20271;-85
2023/12/16 10:37:28;;;;;;;23.67;9.57;;;6.00;99.90;;;;;;5036319;28;20198;-85
2023/12/16 10:40:16;;;;;;;28.30;10.37;;;6.00;99.90;;;;;;5034950;28;20714;-83
2023/12/16 10:43:05;;;;;;;25.40;10.30;;;6.00;99.90;;;;;;5034001;28;20188;-85
2023/12/16 10:45:54;;;;;;;25.87;10.43;;;5.90;99.90;;;;;;5035267;28;20199;-84
2023/12/16 10:48:44;;;;;;;26.47;11.00;;;6.00;99.90;;;;;;5034507;28;20192;-84
2023/12/16 10:51:42;;;;;;;32.33;12.00;;;6.00;99.90;;;;;;5035311;28;20206;-85
2023/12/16 10:54:33;;;;;;;31.10;12.33;;;6.00;99.90;;;;;;5034861;28;20540;-84
2023/12/16 10:57:34;;;;;;;27.33;11.93;;;6.00;99.90;;;;;;5034317;28;20313;-84
2023/12/16 11:00:23;;;;;;;31.47;12.20;;;6.10;99.90;;;;;;5034208;28;20191;-84
2023/12/16 11:03:28;;;;;;;28.37;12.07;;;6.20;99.90;;;;;;5034136;28;20281;-84
2023/12/16 11:06:23;;;;;;;36.03;12.50;;;6.00;99.90;;;;;;5034504;28;20372;-83
2023/12/16 11:09:12;;;;;;;28.50;12.13;;;6.10;99.90;;;;;;5035400;28;20285;-84
2023/12/16 11:12:01;;;;;;;29.40;12.60;;;6.00;99.90;;;;;;5034008;28;20220;-83
2023/12/16 11:14:54;;;;;;;26.33;12.63;;;6.00;99.90;;;;;;5032868;28;20211;-84
2023/12/16 11:18:04;;;;;;;27.63;12.80;;;6.00;99.90;;;;;;5033879;28;20671;-84
2023/12/16 11:20:56;;;;;;;35.73;13.17;;;6.10;99.90;;;;;;5032985;28;20190;-84
2023/12/16 11:23:45;;;;;;;32.57;12.87;;;6.00;99.90;;;;;;5032896;28;20336;-83
2023/12/16 11:26:34;;;;;;;28.30;12.70;;;6.10;99.90;;;;;;5033651;28;20621;-84
2023/12/16 11:29:23;;;;;;;30.93;12.90;;;6.00;99.90;;;;;;5033106;28;20203;-85
2023/12/16 11:32:11;;;;;;;27.60;12.97;;;6.10;99.90;;;;;;5034048;28;20739;-84
2023/12/16 11:34:58;;;;;;;25.97;12.77;;;6.10;99.90;;;;;;5033826;28;20660;-84
2023/12/16 11:37:46;;;;;;;33.30;13.57;;;6.10;99.90;;;;;;5034325;28;20198;-84
2023/12/16 11:40:46;;;;;;;28.57;12.90;;;6.10;99.90;;;;;;5033465;28;20207;-84
2023/12/16 11:43:48;;;;;;;29.83;13.43;;;6.10;99.90;;;;;;5033184;28;20592;-84
2023/12/16 11:46:41;;;;;;;29.87;12.67;;;6.10;99.90;;;;;;5033734;28;20670;-81
2023/12/16 11:49:29;;;;;;;29.50;12.70;;;6.20;99.90;;;;;;5033509;28;20204;-84
2023/12/16 11:52:22;;;;;;;31.50;13.33;;;6.30;99.90;;;;;;5034242;28;20563;-84
2023/12/16 11:55:11;;;;;;;29.87;12.20;;;6.30;99.90;;;;;;5032252;28;20203;-83
2023/12/16 11:57:59;;;;;;;31.10;11.73;;;6.20;99.90;;;;;;5032731;28;20279;-84
2023/12/16 12:00:48;;;;;;;26.33;10.83;;;6.30;99.90;;;;;;5032504;28;20201;-83
2023/12/16 12:03:36;;;;;;;28.23;11.97;;;6.20;99.90;;;;;;5034971;28;20202;-83
2023/12/16 12:06:25;;;;;;;25.87;11.60;;;6.20;99.90;;;;;;5033594;28;20222;-84
2023/12/16 12:09:12;;;;;;;24.10;11.33;;;6.30;99.90;;;;;;5033556;28;20326;-85
2023/12/16 12:12:03;;;;;;;26.60;11.53;;;6.30;99.90;;;;;;5033200;28;20225;-84
2023/12/16 12:14:50;;;;;;;23.70;11.53;;;6.30;99.90;;;;;;5033616;28;20286;-85
2023/12/16 12:17:38;;;;;;;24.10;10.30;;;6.30;99.90;;;;;;5033595;28;20619;-85
2023/12/16 12:20:28;;;;;;;22.50;10.87;;;6.30;99.90;;;;;;5032043;28;20193;-84
2023/12/16 12:23:17;;;;;;;25.37;11.93;;;6.30;99.90;;;;;;5033189;28;20191;-84
2023/12/16 12:26:05;;;;;;;24.60;10.97;;;6.40;99.90;;;;;;5033228;28;20211;-83
2023/12/16 12:29:03;;;;;;;23.43;11.10;;;6.30;99.90;;;;;;5031554;28;20227;-83
2023/12/16 12:31:52;;;;;;;24.50;11.07;;;6.30;99.90;;;;;;5032018;28;20198;-85
2023/12/16 12:34:40;;;;;;;25.23;11.53;;;6.30;99.90;;;;;;5032914;28;20246;-84
2023/12/16 12:37:35;;;;;;;26.63;10.93;;;6.30;99.90;;;;;;5032834;28;20218;-84
2023/12/16 12:40:24;;;;;;;22.10;11.20;;;6.40;99.90;;;;;;5032392;28;20233;-83
2023/12/16 12:43:27;;;;;;;28.20;11.40;;;6.30;99.90;;;;;;5033817;28;20294;-84
2023/12/16 12:46:17;;;;;;;25.10;11.03;;;6.30;99.90;;;;;;5032938;28;20288;-83
2023/12/16 12:49:05;;;;;;;24.20;11.63;;;6.30;99.90;;;;;;5031301;28;20211;-83
2023/12/16 12:51:53;;;;;;;33.50;11.77;;;6.30;99.90;;;;;;5032296;28;20326;-83
2023/12/16 12:54:44;;;;;;;23.50;11.13;;;6.30;99.90;;;;;;5033898;28;20203;-82
2023/12/16 12:57:32;;;;;;;24.83;10.80;;;6.30;99.90;;;;;;5031033;28;20227;-83
2023/12/16 13:00:20;;;;;;;25.00;11.77;;;6.20;99.90;;;;;;5031579;28;20195;-84
2023/12/16 13:03:08;;;;;;;25.20;11.37;;;6.30;99.90;;;;;;5032610;28;20259;-83
2023/12/16 13:05:55;;;;;;;22.13;10.73;;;6.30;99.90;;;;;;5032801;28;20235;-83
2023/12/16 13:08:48;;;;;;;23.90;11.70;;;6.30;99.90;;;;;;5034458;28;20198;-82
2023/12/16 13:11:35;;;;;;;26.37;11.87;;;6.30;99.90;;;;;;5032467;28;20287;-83
2023/12/16 13:14:23;;;;;;;25.27;11.80;;;6.30;99.90;;;;;;5032474;28;20713;-83
2023/12/16 13:17:16;;;;;;;25.20;11.70;;;6.30;99.90;;;;;;5032719;28;20637;-83
2023/12/16 13:20:03;;;;;;;28.43;12.43;;;6.30;99.90;;;;;;5034543;28;20723;-83
2023/12/16 13:22:51;;;;;;;23.73;11.97;;;6.30;99.90;;;;;;5036099;28;20777;-83
2023/12/16 13:25:39;;;;;;;23.60;12.57;;;6.20;99.90;;;;;;5036680;28;20206;-83
2023/12/16 13:28:26;;;;;;;28.80;12.50;;;6.20;99.90;;;;;;5034963;28;20192;-83
2023/12/16 13:31:14;;;;;;;23.83;12.37;;;6.20;99.90;;;;;;5035696;28;20543;-83
2023/12/16 13:34:01;;;;;;;28.67;12.50;;;6.20;99.90;;;;;;5037492;28;20218;-83
2023/12/16 13:36:49;;;;;;;30.20;13.60;;;6.20;99.90;;;;;;5034397;28;20198;-83
2023/12/16 13:39:39;;;;;;;33.30;13.67;;;6.20;99.90;;;;;;5033979;28;20195;-83
2023/12/16 13:42:26;;;;;;;32.23;14.47;;;6.10;99.90;;;;;;5035307;28;20241;-84
2023/12/16 13:45:14;;;;;;;27.03;13.27;;;6.10;99.90;;;;;;5035493;28;20198;-83
2023/12/16 13:48:02;;;;;;;27.93;13.73;;;6.10;99.90;;;;;;5035529;28;20652;-83
2023/12/16 13:50:50;;;;;;;30.93;14.03;;;6.10;99.90;;;;;;5036220;28;20519;-83
2023/12/16 13:53:37;;;;;;;28.27;12.77;;;6.00;99.90;;;;;;5035468;28;20868;-83
2023/12/16 13:56:25;;;;;;;26.47;13.10;;;6.00;99.90;;;;;;5021073;28;20220;-83
2023/12/16 13:59:12;;;;;;;23.83;12.97;;;6.00;99.90;;;;;;5034671;28;20669;-83
2023/12/16 14:02:01;;;;;;;25.67;12.97;;;6.10;99.90;;;;;;5035834;28;20197;-83
2023/12/16 14:04:49;;;;;;;29.47;12.73;;;6.10;99.90;;;;;;5034012;28;20235;-83
2023/12/16 14:07:37;;;;;;;27.63;13.27;;;6.00;99.90;;;;;;5035187;28;20197;-83
2023/12/16 14:10:26;;;;;;;28.07;13.40;;;6.00;99.90;;;;;;5036280;28;20570;-84
2023/12/16 14:13:13;;;;;;;28.63;13.47;;;6.00;99.90;;;;;;5035250;28;20628;-83
2023/12/16 14:16:01;;;;;;;28.40;12.90;;;6.10;99.90;;;;;;5035256;28;20683;-84
2023/12/16 14:18:49;;;;;;;26.00;12.77;;;6.10;99.90;;;;;;5035212;28;20275;-83
2023/12/16 14:21:36;;;;;;;25.13;12.57;;;6.00;99.90;;;;;;5035250;28;20203;-85
2023/12/16 14:24:24;;;;;;;25.50;12.60;;;6.00;99.90;;;;;;5035021;28;20227;-83
2023/12/16 14:27:11;;;;;;;23.90;11.77;;;6.00;99.90;;;;;;5035532;28;20212;-83